sensor_id;sensor_type;location;lat;lon;timestamp;P1;durP1;ratioP1;P2;durP2;ratioP2
5428;SDS011;2737;52.386;9.980;2023-02-28T00:00:29;8.20;;;3.23;;
5428;SDS011;2737;52.386;9.980;2023-02-28T00:02:57;5.50;;;3.00;;
5428;SDS011;2737;52.386;9.980;2023-02-28T00:05:25;5.00;;;2.73;;
5428;SDS011;2737;52.386;9.980;2023-02-28T00:07:54;4.00;;;2.37;;
5428;SDS011;2737;52.386;9.980;2023-02-28T00:10:22;4.33;;;2.77;;
5428;SDS011;2737;52.386;9.980;2023-02-28T00:12:53;5.50;;;3.07;;
5428;SDS011;2737;52.386;9.980;2023-02-28T00:15:22;7.63;;;3.10;;
5428;SDS011;2737;52.386;9.980;2023-02-28T00:17:49;7.20;;;3.23;;
5428;SDS011;2737;52.386;9.980;2023-02-28T00:20:17;9.37;;;2.50;;
5428;SDS011;2737;52.386;9.980;2023-02-28T00:22:45;5.40;;;2.70;;
5428;SDS011;2737;52.386;9.980;2023-02-28T00:25:15;4.40;;;2.43;;
5428;SDS011;2737;52.386;9.980;2023-02-28T00:27:44;4.93;;;2.40;;
5428;SDS011;2737;52.386;9.980;2023-02-28T00:30:13;4.47;;;3.40;;
5428;SDS011;2737;52.386;9.980;2023-02-28T00:32:42;6.60;;;2.90;;
5428;SDS011;2737;52.386;9.980;2023-02-28T00:35:10;4.47;;;2.80;;
5428;SDS011;2737;52.386;9.980;2023-02-28T00:37:38;6.90;;;3.07;;
5428;SDS011;2737;52.386;9.980;2023-02-28T00:40:06;8.17;;;2.90;;
5428;SDS011;2737;52.386;9.980;2023-02-28T00:42:36;5.63;;;2.73;;
5428;SDS011;2737;52.386;9.980;2023-02-28T00:45:03;5.47;;;3.23;;
5428;SDS011;2737;52.386;9.980;2023-02-28T00:47:31;4.30;;;2.60;;
5428;SDS011;2737;52.386;9.980;2023-02-28T00:49:59;4.80;;;3.50;;
5428;SDS011;2737;52.386;9.980;2023-02-28T00:52:26;7.47;;;2.90;;
5428;SDS011;2737;52.386;9.980;2023-02-28T00:54:53;6.53;;;3.00;;
5428;SDS011;2737;52.386;9.980;2023-02-28T00:57:20;4.20;;;3.00;;
5428;SDS011;2737;52.386;9.980;2023-02-28T00:59:49;7.80;;;2.70;;
5428;SDS011;2737;52.386;9.980;2023-02-28T01:02:16;5.00;;;2.73;;
5428;SDS011;2737;52.386;9.980;2023-02-28T01:04:45;3.40;;;2.60;;
5428;SDS011;2737;52.386;9.980;2023-02-28T01:07:12;4.73;;;2.67;;
5428;SDS011;2737;52.386;9.980;2023-02-28T01:09:40;5.13;;;2.73;;
5428;SDS011;2737;52.386;9.980;2023-02-28T01:12:07;8.60;;;3.13;;
5428;SDS011;2737;52.386;9.980;2023-02-28T01:14:35;4.80;;;2.50;;
5428;SDS011;2737;52.386;9.980;2023-02-28T01:17:03;6.50;;;3.17;;
5428;SDS011;2737;52.386;9.980;2023-02-28T01:19:30;4.80;;;2.60;;
5428;SDS011;2737;52.386;9.980;2023-02-28T01:22:00;11.00;;;3.10;;
5428;SDS011;2737;52.386;9.980;2023-02-28T01:24:27;6.80;;;3.00;;
5428;SDS011;2737;52.386;9.980;2023-02-28T01:26:54;5.73;;;3.10;;
5428;SDS011;2737;52.386;9.980;2023-02-28T01:29:21;6.43;;;3.20;;
5428;SDS011;2737;52.386;9.980;2023-02-28T01:31:48;6.57;;;4.03;;
5428;SDS011;2737;52.386;9.980;2023-02-28T01:34:17;9.97;;;3.90;;
5428;SDS011;2737;52.386;9.980;2023-02-28T01:36:44;6.80;;;4.07;;
5428;SDS011;2737;52.386;9.980;2023-02-28T01:39:11;5.33;;;2.83;;
5428;SDS011;2737;52.386;9.980;2023-02-28T01:41:39;6.37;;;2.67;;
5428;SDS011;2737;52.386;9.980;2023-02-28T01:44:07;6.40;;;3.00;;
5428;SDS011;2737;52.386;9.980;2023-02-28T01:47:12;5.40;;;3.23;;
5428;SDS011;2737;52.386;9.980;2023-02-28T01:49:40;5.80;;;3.00;;
5428;SDS011;2737;52.386;9.980;2023-02-28T01:52:08;16.53;;;3.27;;
5428;SDS011;2737;52.386;9.980;2023-02-28T01:54:40;8.27;;;3.03;;
5428;SDS011;2737;52.386;9.980;2023-02-28T01:57:08;5.30;;;2.93;;
5428;SDS011;2737;52.386;9.980;2023-02-28T01:59:42;5.60;;;3.00;;
5428;SDS011;2737;52.386;9.980;2023-02-28T02:02:15;9.30;;;3.53;;
5428;SDS011;2737;52.386;9.980;2023-02-28T02:04:49;6.30;;;3.30;;
5428;SDS011;2737;52.386;9.980;2023-02-28T02:07:19;6.60;;;3.07;;
5428;SDS011;2737;52.386;9.980;2023-02-28T02:09:47;7.47;;;3.67;;
5428;SDS011;2737;52.386;9.980;2023-02-28T02:12:17;7.60;;;3.40;;
5428;SDS011;2737;52.386;9.980;2023-02-28T02:14:56;7.77;;;3.93;;
5428;SDS011;2737;52.386;9.980;2023-02-28T02:17:32;8.33;;;3.90;;
5428;SDS011;2737;52.386;9.980;2023-02-28T02:23:09;7.33;;;3.77;;
5428;SDS011;2737;52.386;9.980;2023-02-28T02:25:55;8.67;;;3.57;;
5428;SDS011;2737;52.386;9.980;2023-02-28T02:34:39;8.37;;;4.50;;
5428;SDS011;2737;52.386;9.980;2023-02-28T02:37:14;8.33;;;3.90;;
5428;SDS011;2737;52.386;9.980;2023-02-28T02:39:50;10.40;;;4.73;;
5428;SDS011;2737;52.386;9.980;2023-02-28T02:42:21;8.50;;;4.53;;
5428;SDS011;2737;52.386;9.980;2023-02-28T02:44:55;6.97;;;4.13;;
5428;SDS011;2737;52.386;9.980;2023-02-28T02:47:27;9.03;;;5.10;;
5428;SDS011;2737;52.386;9.980;2023-02-28T02:49:59;9.50;;;4.83;;
5428;SDS011;2737;52.386;9.980;2023-02-28T02:52:32;14.00;;;4.33;;
5428;SDS011;2737;52.386;9.980;2023-02-28T02:55:03;8.47;;;3.90;;
5428;SDS011;2737;52.386;9.980;2023-02-28T02:57:32;8.20;;;4.93;;
5428;SDS011;2737;52.386;9.980;2023-02-28T03:00:03;7.70;;;3.77;;
5428;SDS011;2737;52.386;9.980;2023-02-28T03:02:33;9.17;;;4.17;;
5428;SDS011;2737;52.386;9.980;2023-02-28T03:05:04;10.50;;;4.30;;
5428;SDS011;2737;52.386;9.980;2023-02-28T03:07:38;7.97;;;3.93;;
5428;SDS011;2737;52.386;9.980;2023-02-28T03:12:57;8.80;;;3.80;;
5428;SDS011;2737;52.386;9.980;2023-02-28T03:15:36;6.93;;;4.13;;
5428;SDS011;2737;52.386;9.980;2023-02-28T03:18:15;15.33;;;4.50;;
5428;SDS011;2737;52.386;9.980;2023-02-28T03:20:53;7.70;;;4.30;;
5428;SDS011;2737;52.386;9.980;2023-02-28T03:23:32;7.10;;;3.90;;
5428;SDS011;2737;52.386;9.980;2023-02-28T03:26:11;6.10;;;4.23;;
5428;SDS011;2737;52.386;9.980;2023-02-28T03:28:45;6.27;;;4.07;;
5428;SDS011;2737;52.386;9.980;2023-02-28T03:31:21;11.33;;;3.93;;
5428;SDS011;2737;52.386;9.980;2023-02-28T03:33:54;6.67;;;4.53;;
5428;SDS011;2737;52.386;9.980;2023-02-28T03:36:28;7.73;;;3.63;;
5428;SDS011;2737;52.386;9.980;2023-02-28T03:38:59;8.53;;;4.10;;
5428;SDS011;2737;52.386;9.980;2023-02-28T03:41:31;9.33;;;4.20;;
5428;SDS011;2737;52.386;9.980;2023-02-28T03:44:05;5.00;;;3.93;;
5428;SDS011;2737;52.386;9.980;2023-02-28T03:46:41;8.27;;;4.13;;
5428;SDS011;2737;52.386;9.980;2023-02-28T03:49:13;6.80;;;4.33;;
5428;SDS011;2737;52.386;9.980;2023-02-28T03:51:44;6.33;;;3.80;;
5428;SDS011;2737;52.386;9.980;2023-02-28T03:54:14;7.53;;;4.20;;
5428;SDS011;2737;52.386;9.980;2023-02-28T03:56:44;8.37;;;4.33;;
5428;SDS011;2737;52.386;9.980;2023-02-28T03:59:16;6.30;;;4.43;;
5428;SDS011;2737;52.386;9.980;2023-02-28T04:01:48;9.50;;;5.40;;
5428;SDS011;2737;52.386;9.980;2023-02-28T04:04:17;8.00;;;5.10;;
5428;SDS011;2737;52.386;9.980;2023-02-28T04:06:45;8.53;;;4.93;;
5428;SDS011;2737;52.386;9.980;2023-02-28T04:09:16;9.20;;;4.63;;
5428;SDS011;2737;52.386;9.980;2023-02-28T04:11:44;8.53;;;4.77;;
5428;SDS011;2737;52.386;9.980;2023-02-28T04:14:12;8.50;;;4.37;;
5428;SDS011;2737;52.386;9.980;2023-02-28T04:16:40;9.40;;;4.73;;
5428;SDS011;2737;52.386;9.980;2023-02-28T04:19:08;7.83;;;4.17;;
5428;SDS011;2737;52.386;9.980;2023-02-28T04:21:38;5.80;;;3.80;;
5428;SDS011;2737;52.386;9.980;2023-02-28T04:24:09;7.10;;;4.00;;
5428;SDS011;2737;52.386;9.980;2023-02-28T04:26:40;10.03;;;5.20;;
5428;SDS011;2737;52.386;9.980;2023-02-28T04:29:09;10.10;;;5.67;;
5428;SDS011;2737;52.386;9.980;2023-02-28T04:31:37;9.03;;;4.77;;
5428;SDS011;2737;52.386;9.980;2023-02-28T04:34:04;10.53;;;4.70;;
5428;SDS011;2737;52.386;9.980;2023-02-28T04:36:32;9.13;;;4.60;;
5428;SDS011;2737;52.386;9.980;2023-02-28T04:38:59;11.80;;;4.73;;
5428;SDS011;2737;52.386;9.980;2023-02-28T04:41:27;17.00;;;8.17;;
5428;SDS011;2737;52.386;9.980;2023-02-28T04:43:54;12.07;;;6.83;;
5428;SDS011;2737;52.386;9.980;2023-02-28T04:46:22;9.00;;;5.50;;
5428;SDS011;2737;52.386;9.980;2023-02-28T04:48:49;8.40;;;4.67;;
5428;SDS011;2737;52.386;9.980;2023-02-28T04:51:17;10.73;;;5.60;;
5428;SDS011;2737;52.386;9.980;2023-02-28T04:53:45;9.77;;;6.03;;
5428;SDS011;2737;52.386;9.980;2023-02-28T04:56:13;9.10;;;5.90;;
5428;SDS011;2737;52.386;9.980;2023-02-28T04:58:43;11.50;;;4.67;;
5428;SDS011;2737;52.386;9.980;2023-02-28T05:01:18;9.60;;;5.83;;
5428;SDS011;2737;52.386;9.980;2023-02-28T05:03:48;11.37;;;5.73;;
5428;SDS011;2737;52.386;9.980;2023-02-28T05:06:15;9.83;;;5.30;;
5428;SDS011;2737;52.386;9.980;2023-02-28T05:08:43;12.50;;;7.00;;
5428;SDS011;2737;52.386;9.980;2023-02-28T05:11:13;11.57;;;5.40;;
5428;SDS011;2737;52.386;9.980;2023-02-28T05:13:44;8.47;;;4.90;;
5428;SDS011;2737;52.386;9.980;2023-02-28T05:16:11;10.60;;;4.40;;
5428;SDS011;2737;52.386;9.980;2023-02-28T05:18:38;8.67;;;4.80;;
5428;SDS011;2737;52.386;9.980;2023-02-28T05:21:12;8.87;;;4.43;;
5428;SDS011;2737;52.386;9.980;2023-02-28T05:23:51;8.77;;;4.00;;
5428;SDS011;2737;52.386;9.980;2023-02-28T05:26:18;11.17;;;6.17;;
5428;SDS011;2737;52.386;9.980;2023-02-28T05:28:47;12.27;;;6.07;;
5428;SDS011;2737;52.386;9.980;2023-02-28T05:31:14;12.13;;;5.70;;
5428;SDS011;2737;52.386;9.980;2023-02-28T05:33:41;9.20;;;4.37;;
5428;SDS011;2737;52.386;9.980;2023-02-28T05:36:08;7.40;;;4.60;;
5428;SDS011;2737;52.386;9.980;2023-02-28T05:38:35;11.00;;;4.50;;
5428;SDS011;2737;52.386;9.980;2023-02-28T05:41:04;6.53;;;3.40;;
5428;SDS011;2737;52.386;9.980;2023-02-28T05:43:32;5.47;;;3.73;;
5428;SDS011;2737;52.386;9.980;2023-02-28T05:46:03;10.10;;;4.07;;
5428;SDS011;2737;52.386;9.980;2023-02-28T05:48:30;6.57;;;3.93;;
5428;SDS011;2737;52.386;9.980;2023-02-28T05:50:58;8.20;;;3.57;;
5428;SDS011;2737;52.386;9.980;2023-02-28T05:53:25;9.00;;;4.13;;
5428;SDS011;2737;52.386;9.980;2023-02-28T05:55:52;7.80;;;4.63;;
5428;SDS011;2737;52.386;9.980;2023-02-28T05:58:19;8.40;;;4.37;;
5428;SDS011;2737;52.386;9.980;2023-02-28T06:00:47;8.53;;;5.07;;
5428;SDS011;2737;52.386;9.980;2023-02-28T06:03:15;5.87;;;4.33;;
5428;SDS011;2737;52.386;9.980;2023-02-28T06:05:42;11.23;;;4.93;;
5428;SDS011;2737;52.386;9.980;2023-02-28T06:08:09;8.47;;;4.60;;
5428;SDS011;2737;52.386;9.980;2023-02-28T06:10:36;14.80;;;4.40;;
5428;SDS011;2737;52.386;9.980;2023-02-28T06:13:04;9.17;;;4.50;;
5428;SDS011;2737;52.386;9.980;2023-02-28T06:15:31;7.90;;;4.70;;
5428;SDS011;2737;52.386;9.980;2023-02-28T06:17:59;7.40;;;4.10;;
5428;SDS011;2737;52.386;9.980;2023-02-28T06:20:27;12.43;;;4.70;;
5428;SDS011;2737;52.386;9.980;2023-02-28T06:22:55;7.90;;;4.30;;
5428;SDS011;2737;52.386;9.980;2023-02-28T06:25:23;6.77;;;4.80;;
5428;SDS011;2737;52.386;9.980;2023-02-28T06:27:51;7.83;;;4.17;;
5428;SDS011;2737;52.386;9.980;2023-02-28T06:30:18;14.07;;;4.37;;
5428;SDS011;2737;52.386;9.980;2023-02-28T06:32:50;11.90;;;4.80;;
5428;SDS011;2737;52.386;9.980;2023-02-28T06:35:17;5.83;;;3.40;;
5428;SDS011;2737;52.386;9.980;2023-02-28T06:37:46;7.50;;;5.07;;
5428;SDS011;2737;52.386;9.980;2023-02-28T06:40:13;7.80;;;3.50;;
5428;SDS011;2737;52.386;9.980;2023-02-28T06:42:41;11.70;;;4.80;;
5428;SDS011;2737;52.386;9.980;2023-02-28T06:45:08;19.73;;;5.30;;
5428;SDS011;2737;52.386;9.980;2023-02-28T06:47:36;18.50;;;6.13;;
5428;SDS011;2737;52.386;9.980;2023-02-28T06:50:04;12.40;;;5.57;;
5428;SDS011;2737;52.386;9.980;2023-02-28T06:52:33;14.67;;;6.03;;
5428;SDS011;2737;52.386;9.980;2023-02-28T06:55:03;8.00;;;5.33;;
5428;SDS011;2737;52.386;9.980;2023-02-28T06:57:31;14.67;;;6.20;;
5428;SDS011;2737;52.386;9.980;2023-02-28T07:00:00;10.67;;;5.90;;
5428;SDS011;2737;52.386;9.980;2023-02-28T07:02:30;13.33;;;6.10;;
5428;SDS011;2737;52.386;9.980;2023-02-28T07:04:57;17.23;;;6.83;;
5428;SDS011;2737;52.386;9.980;2023-02-28T07:07:24;17.57;;;5.60;;
5428;SDS011;2737;52.386;9.980;2023-02-28T07:09:51;13.13;;;6.30;;
5428;SDS011;2737;52.386;9.980;2023-02-28T07:12:20;12.10;;;5.83;;
5428;SDS011;2737;52.386;9.980;2023-02-28T07:14:47;13.07;;;6.20;;
5428;SDS011;2737;52.386;9.980;2023-02-28T07:17:14;16.73;;;6.37;;
5428;SDS011;2737;52.386;9.980;2023-02-28T07:19:41;11.00;;;5.57;;
5428;SDS011;2737;52.386;9.980;2023-02-28T07:22:08;9.87;;;5.83;;
5428;SDS011;2737;52.386;9.980;2023-02-28T07:24:35;9.07;;;5.20;;
5428;SDS011;2737;52.386;9.980;2023-02-28T07:27:03;15.40;;;5.27;;
5428;SDS011;2737;52.386;9.980;2023-02-28T07:29:31;8.10;;;4.93;;
5428;SDS011;2737;52.386;9.980;2023-02-28T07:31:58;8.20;;;5.00;;
5428;SDS011;2737;52.386;9.980;2023-02-28T07:34:25;13.23;;;5.47;;
5428;SDS011;2737;52.386;9.980;2023-02-28T07:36:53;12.23;;;5.30;;
5428;SDS011;2737;52.386;9.980;2023-02-28T07:39:20;8.60;;;5.00;;
5428;SDS011;2737;52.386;9.980;2023-02-28T07:41:48;8.70;;;4.83;;
5428;SDS011;2737;52.386;9.980;2023-02-28T07:44:15;9.27;;;4.60;;
5428;SDS011;2737;52.386;9.980;2023-02-28T07:46:43;11.83;;;5.97;;
5428;SDS011;2737;52.386;9.980;2023-02-28T07:49:10;8.50;;;4.73;;
5428;SDS011;2737;52.386;9.980;2023-02-28T07:51:37;11.10;;;4.90;;
5428;SDS011;2737;52.386;9.980;2023-02-28T07:54:04;12.50;;;4.50;;
5428;SDS011;2737;52.386;9.980;2023-02-28T07:56:31;8.73;;;3.80;;
5428;SDS011;2737;52.386;9.980;2023-02-28T07:58:58;9.40;;;4.50;;
5428;SDS011;2737;52.386;9.980;2023-02-28T08:01:26;5.97;;;3.83;;
5428;SDS011;2737;52.386;9.980;2023-02-28T08:03:55;7.50;;;4.00;;
5428;SDS011;2737;52.386;9.980;2023-02-28T08:06:24;7.70;;;3.77;;
5428;SDS011;2737;52.386;9.980;2023-02-28T08:08:52;8.43;;;4.00;;
5428;SDS011;2737;52.386;9.980;2023-02-28T08:11:21;7.70;;;3.97;;
5428;SDS011;2737;52.386;9.980;2023-02-28T08:13:48;9.43;;;3.23;;
5428;SDS011;2737;52.386;9.980;2023-02-28T08:16:15;8.27;;;3.87;;
5428;SDS011;2737;52.386;9.980;2023-02-28T08:18:47;6.83;;;3.10;;
5428;SDS011;2737;52.386;9.980;2023-02-28T08:21:15;5.90;;;3.40;;
5428;SDS011;2737;52.386;9.980;2023-02-28T08:23:42;11.10;;;3.30;;
5428;SDS011;2737;52.386;9.980;2023-02-28T08:26:10;4.43;;;2.50;;
5428;SDS011;2737;52.386;9.980;2023-02-28T08:28:37;8.63;;;3.33;;
5428;SDS011;2737;52.386;9.980;2023-02-28T08:31:07;6.70;;;2.70;;
5428;SDS011;2737;52.386;9.980;2023-02-28T08:33:35;5.30;;;2.53;;
5428;SDS011;2737;52.386;9.980;2023-02-28T08:36:04;5.43;;;2.80;;
5428;SDS011;2737;52.386;9.980;2023-02-28T08:38:33;3.90;;;2.20;;
5428;SDS011;2737;52.386;9.980;2023-02-28T08:41:01;4.07;;;2.60;;
5428;SDS011;2737;52.386;9.980;2023-02-28T08:43:31;4.57;;;2.77;;
5428;SDS011;2737;52.386;9.980;2023-02-28T08:45:58;7.20;;;2.50;;
5428;SDS011;2737;52.386;9.980;2023-02-28T08:48:25;4.33;;;2.73;;
5428;SDS011;2737;52.386;9.980;2023-02-28T08:50:56;4.37;;;2.70;;
5428;SDS011;2737;52.386;9.980;2023-02-28T08:53:24;20.13;;;2.77;;
5428;SDS011;2737;52.386;9.980;2023-02-28T08:55:58;3.57;;;2.03;;
5428;SDS011;2737;52.386;9.980;2023-02-28T08:58:27;3.83;;;2.30;;
5428;SDS011;2737;52.386;9.980;2023-02-28T09:00:54;4.50;;;2.53;;
5428;SDS011;2737;52.386;9.980;2023-02-28T09:03:22;4.13;;;2.50;;
5428;SDS011;2737;52.386;9.980;2023-02-28T09:05:57;3.40;;;2.17;;
5428;SDS011;2737;52.386;9.980;2023-02-28T09:08:25;4.43;;;2.47;;
5428;SDS011;2737;52.386;9.980;2023-02-28T09:10:55;3.27;;;2.00;;
5428;SDS011;2737;52.386;9.980;2023-02-28T09:13:24;4.70;;;2.00;;
5428;SDS011;2737;52.386;9.980;2023-02-28T09:15:52;3.87;;;2.23;;
5428;SDS011;2737;52.386;9.980;2023-02-28T09:18:20;5.57;;;2.70;;
5428;SDS011;2737;52.386;9.980;2023-02-28T09:20:47;3.30;;;2.37;;
5428;SDS011;2737;52.386;9.980;2023-02-28T09:23:15;4.57;;;2.70;;
5428;SDS011;2737;52.386;9.980;2023-02-28T09:25:46;4.83;;;2.40;;
5428;SDS011;2737;52.386;9.980;2023-02-28T09:28:14;6.00;;;2.60;;
5428;SDS011;2737;52.386;9.980;2023-02-28T09:30:43;4.97;;;2.40;;
5428;SDS011;2737;52.386;9.980;2023-02-28T09:33:11;3.53;;;1.80;;
5428;SDS011;2737;52.386;9.980;2023-02-28T09:35:39;3.60;;;2.20;;
5428;SDS011;2737;52.386;9.980;2023-02-28T09:38:06;2.83;;;2.00;;
5428;SDS011;2737;52.386;9.980;2023-02-28T09:40:35;4.83;;;2.27;;
5428;SDS011;2737;52.386;9.980;2023-02-28T09:43:03;3.00;;;1.60;;
5428;SDS011;2737;52.386;9.980;2023-02-28T09:45:32;3.70;;;2.10;;
5428;SDS011;2737;52.386;9.980;2023-02-28T09:48:03;5.27;;;1.97;;
5428;SDS011;2737;52.386;9.980;2023-02-28T09:50:37;2.60;;;2.00;;
5428;SDS011;2737;52.386;9.980;2023-02-28T09:53:10;3.70;;;2.03;;
5428;SDS011;2737;52.386;9.980;2023-02-28T09:55:47;5.23;;;2.00;;
5428;SDS011;2737;52.386;9.980;2023-02-28T09:58:18;2.87;;;1.73;;
5428;SDS011;2737;52.386;9.980;2023-02-28T10:00:51;3.27;;;1.83;;
5428;SDS011;2737;52.386;9.980;2023-02-28T10:03:27;7.13;;;2.00;;
5428;SDS011;2737;52.386;9.980;2023-02-28T10:05:59;3.57;;;2.90;;
5428;SDS011;2737;52.386;9.980;2023-02-28T10:08:33;3.10;;;1.50;;
5428;SDS011;2737;52.386;9.980;2023-02-28T10:11:07;2.20;;;1.13;;
5428;SDS011;2737;52.386;9.980;2023-02-28T10:13:38;1.67;;;1.40;;
5428;SDS011;2737;52.386;9.980;2023-02-28T10:16:16;1.60;;;1.13;;
5428;SDS011;2737;52.386;9.980;2023-02-28T10:18:50;1.20;;;1.10;;
5428;SDS011;2737;52.386;9.980;2023-02-28T10:21:31;2.00;;;1.27;;
5428;SDS011;2737;52.386;9.980;2023-02-28T10:24:03;3.63;;;1.30;;
5428;SDS011;2737;52.386;9.980;2023-02-28T10:26:37;4.27;;;1.20;;
5428;SDS011;2737;52.386;9.980;2023-02-28T10:29:04;2.50;;;1.13;;
5428;SDS011;2737;52.386;9.980;2023-02-28T10:31:34;1.20;;;1.10;;
5428;SDS011;2737;52.386;9.980;2023-02-28T10:34:02;4.37;;;1.43;;
5428;SDS011;2737;52.386;9.980;2023-02-28T10:36:31;3.57;;;1.20;;
5428;SDS011;2737;52.386;9.980;2023-02-28T10:38:58;4.80;;;1.50;;
5428;SDS011;2737;52.386;9.980;2023-02-28T10:41:27;1.93;;;1.10;;
5428;SDS011;2737;52.386;9.980;2023-02-28T10:44:13;1.90;;;1.17;;
5428;SDS011;2737;52.386;9.980;2023-02-28T10:46:41;4.80;;;1.53;;
5428;SDS011;2737;52.386;9.980;2023-02-28T10:49:14;2.30;;;1.60;;
5428;SDS011;2737;52.386;9.980;2023-02-28T10:51:44;2.50;;;1.20;;
5428;SDS011;2737;52.386;9.980;2023-02-28T10:54:16;3.07;;;1.40;;
5428;SDS011;2737;52.386;9.980;2023-02-28T10:56:46;5.03;;;1.33;;
5428;SDS011;2737;52.386;9.980;2023-02-28T10:59:34;1.97;;;1.33;;
5428;SDS011;2737;52.386;9.980;2023-02-28T11:02:01;3.20;;;1.80;;
5428;SDS011;2737;52.386;9.980;2023-02-28T11:04:34;2.43;;;1.50;;
5428;SDS011;2737;52.386;9.980;2023-02-28T11:07:04;1.57;;;1.13;;
5428;SDS011;2737;52.386;9.980;2023-02-28T11:09:41;1.93;;;1.23;;
5428;SDS011;2737;52.386;9.980;2023-02-28T11:12:19;2.37;;;0.90;;
5428;SDS011;2737;52.386;9.980;2023-02-28T11:14:48;1.63;;;0.80;;
5428;SDS011;2737;52.386;9.980;2023-02-28T11:17:19;2.80;;;1.30;;
5428;SDS011;2737;52.386;9.980;2023-02-28T11:19:50;0.70;;;0.70;;
5428;SDS011;2737;52.386;9.980;2023-02-28T11:22:20;6.53;;;1.10;;
5428;SDS011;2737;52.386;9.980;2023-02-28T11:24:50;1.10;;;0.80;;
5428;SDS011;2737;52.386;9.980;2023-02-28T11:27:45;3.47;;;1.10;;
5428;SDS011;2737;52.386;9.980;2023-02-28T11:30:33;1.97;;;1.17;;
5428;SDS011;2737;52.386;9.980;2023-02-28T11:33:18;3.07;;;1.10;;
5428;SDS011;2737;52.386;9.980;2023-02-28T11:35:50;1.90;;;1.30;;
5428;SDS011;2737;52.386;9.980;2023-02-28T11:38:18;5.60;;;1.30;;
5428;SDS011;2737;52.386;9.980;2023-02-28T11:40:48;3.67;;;1.00;;
5428;SDS011;2737;52.386;9.980;2023-02-28T11:43:36;1.37;;;0.93;;
5428;SDS011;2737;52.386;9.980;2023-02-28T11:46:16;3.57;;;1.50;;
5428;SDS011;2737;52.386;9.980;2023-02-28T11:48:54;4.00;;;1.53;;
5428;SDS011;2737;52.386;9.980;2023-02-28T11:51:31;3.40;;;1.60;;
5428;SDS011;2737;52.386;9.980;2023-02-28T11:54:08;4.53;;;1.70;;
5428;SDS011;2737;52.386;9.980;2023-02-28T11:56:49;5.00;;;2.10;;
5428;SDS011;2737;52.386;9.980;2023-02-28T11:59:27;3.40;;;2.30;;
5428;SDS011;2737;52.386;9.980;2023-02-28T12:02:25;3.70;;;2.33;;
5428;SDS011;2737;52.386;9.980;2023-02-28T12:05:01;3.10;;;1.50;;
5428;SDS011;2737;52.386;9.980;2023-02-28T12:07:42;4.67;;;1.90;;
5428;SDS011;2737;52.386;9.980;2023-02-28T12:10:20;14.00;;;1.80;;
5428;SDS011;2737;52.386;9.980;2023-02-28T12:12:51;2.97;;;1.70;;
5428;SDS011;2737;52.386;9.980;2023-02-28T12:15:33;7.63;;;2.13;;
5428;SDS011;2737;52.386;9.980;2023-02-28T12:18:26;4.10;;;1.93;;
5428;SDS011;2737;52.386;9.980;2023-02-28T12:21:06;4.20;;;1.60;;
5428;SDS011;2737;52.386;9.980;2023-02-28T12:24:00;5.63;;;2.17;;
5428;SDS011;2737;52.386;9.980;2023-02-28T12:26:36;5.03;;;1.57;;
5428;SDS011;2737;52.386;9.980;2023-02-28T12:29:10;3.53;;;1.97;;
5428;SDS011;2737;52.386;9.980;2023-02-28T12:31:42;5.63;;;2.30;;
5428;SDS011;2737;52.386;9.980;2023-02-28T12:34:16;3.67;;;1.97;;
5428;SDS011;2737;52.386;9.980;2023-02-28T12:36:46;5.40;;;1.90;;
5428;SDS011;2737;52.386;9.980;2023-02-28T12:39:16;3.23;;;1.80;;
5428;SDS011;2737;52.386;9.980;2023-02-28T12:41:48;3.60;;;1.90;;
5428;SDS011;2737;52.386;9.980;2023-02-28T12:44:20;2.97;;;1.60;;
5428;SDS011;2737;52.386;9.980;2023-02-28T12:46:54;4.10;;;2.03;;
5428;SDS011;2737;52.386;9.980;2023-02-28T12:49:25;4.10;;;2.00;;
5428;SDS011;2737;52.386;9.980;2023-02-28T12:51:57;5.50;;;2.13;;
5428;SDS011;2737;52.386;9.980;2023-02-28T12:54:28;2.83;;;1.83;;
5428;SDS011;2737;52.386;9.980;2023-02-28T12:57:04;3.93;;;1.90;;
5428;SDS011;2737;52.386;9.980;2023-02-28T12:59:37;12.03;;;3.47;;
5428;SDS011;2737;52.386;9.980;2023-02-28T13:02:18;3.20;;;1.83;;
5428;SDS011;2737;52.386;9.980;2023-02-28T13:05:14;3.23;;;1.53;;
5428;SDS011;2737;52.386;9.980;2023-02-28T13:08:07;3.27;;;2.00;;
5428;SDS011;2737;52.386;9.980;2023-02-28T13:10:48;2.57;;;1.93;;
5428;SDS011;2737;52.386;9.980;2023-02-28T13:13:20;3.30;;;1.70;;
5428;SDS011;2737;52.386;9.980;2023-02-28T13:15:59;4.40;;;1.77;;
5428;SDS011;2737;52.386;9.980;2023-02-28T13:18:30;3.57;;;1.70;;
5428;SDS011;2737;52.386;9.980;2023-02-28T13:21:01;3.30;;;2.07;;
5428;SDS011;2737;52.386;9.980;2023-02-28T13:23:55;3.37;;;1.83;;
5428;SDS011;2737;52.386;9.980;2023-02-28T13:29:40;2.30;;;1.57;;
5428;SDS011;2737;52.386;9.980;2023-02-28T13:38:22;3.50;;;1.63;;
5428;SDS011;2737;52.386;9.980;2023-02-28T13:44:21;3.57;;;1.80;;
5428;SDS011;2737;52.386;9.980;2023-02-28T13:49:50;3.43;;;2.00;;
5428;SDS011;2737;52.386;9.980;2023-02-28T13:52:19;3.80;;;1.70;;
5428;SDS011;2737;52.386;9.980;2023-02-28T13:57:56;6.40;;;1.70;;
5428;SDS011;2737;52.386;9.980;2023-02-28T14:00:41;2.10;;;1.70;;
5428;SDS011;2737;52.386;9.980;2023-02-28T14:03:28;2.03;;;1.70;;
5428;SDS011;2737;52.386;9.980;2023-02-28T14:06:10;3.33;;;1.70;;
5428;SDS011;2737;52.386;9.980;2023-02-28T14:08:50;3.73;;;1.43;;
5428;SDS011;2737;52.386;9.980;2023-02-28T14:11:29;6.10;;;1.87;;
5428;SDS011;2737;52.386;9.980;2023-02-28T14:13:58;3.53;;;2.00;;
5428;SDS011;2737;52.386;9.980;2023-02-28T14:16:26;4.70;;;2.10;;
5428;SDS011;2737;52.386;9.980;2023-02-28T14:19:03;2.10;;;1.37;;
5428;SDS011;2737;52.386;9.980;2023-02-28T14:21:38;2.30;;;1.63;;
5428;SDS011;2737;52.386;9.980;2023-02-28T14:24:37;4.07;;;1.60;;
5428;SDS011;2737;52.386;9.980;2023-02-28T14:27:21;3.60;;;2.00;;
5428;SDS011;2737;52.386;9.980;2023-02-28T14:33:26;5.60;;;1.60;;
5428;SDS011;2737;52.386;9.980;2023-02-28T14:36:16;3.50;;;2.10;;
5428;SDS011;2737;52.386;9.980;2023-02-28T14:38:46;4.80;;;2.00;;
5428;SDS011;2737;52.386;9.980;2023-02-28T14:41:21;3.73;;;1.60;;
5428;SDS011;2737;52.386;9.980;2023-02-28T14:43:50;2.43;;;1.60;;
5428;SDS011;2737;52.386;9.980;2023-02-28T14:46:20;6.13;;;1.70;;
5428;SDS011;2737;52.386;9.980;2023-02-28T14:48:49;4.53;;;1.90;;
5428;SDS011;2737;52.386;9.980;2023-02-28T14:51:21;6.30;;;2.17;;
5428;SDS011;2737;52.386;9.980;2023-02-28T14:53:50;3.30;;;2.17;;
5428;SDS011;2737;52.386;9.980;2023-02-28T14:56:23;3.57;;;1.73;;
5428;SDS011;2737;52.386;9.980;2023-02-28T14:58:53;2.30;;;1.67;;
5428;SDS011;2737;52.386;9.980;2023-02-28T15:01:21;1.87;;;1.40;;
5428;SDS011;2737;52.386;9.980;2023-02-28T15:03:59;9.90;;;3.07;;
5428;SDS011;2737;52.386;9.980;2023-02-28T15:06:29;2.20;;;1.47;;
5428;SDS011;2737;52.386;9.980;2023-02-28T15:09:06;3.20;;;2.00;;
5428;SDS011;2737;52.386;9.980;2023-02-28T15:11:35;4.40;;;1.80;;
5428;SDS011;2737;52.386;9.980;2023-02-28T15:14:05;3.87;;;1.70;;
5428;SDS011;2737;52.386;9.980;2023-02-28T15:16:32;3.20;;;2.80;;
5428;SDS011;2737;52.386;9.980;2023-02-28T15:19:04;4.53;;;2.10;;
5428;SDS011;2737;52.386;9.980;2023-02-28T15:21:40;9.00;;;2.30;;
5428;SDS011;2737;52.386;9.980;2023-02-28T15:24:10;2.70;;;2.00;;
5428;SDS011;2737;52.386;9.980;2023-02-28T15:26:49;4.87;;;2.07;;
5428;SDS011;2737;52.386;9.980;2023-02-28T15:29:21;3.07;;;2.00;;
5428;SDS011;2737;52.386;9.980;2023-02-28T15:31:50;4.17;;;2.20;;
5428;SDS011;2737;52.386;9.980;2023-02-28T15:34:22;3.27;;;1.90;;
5428;SDS011;2737;52.386;9.980;2023-02-28T15:36:57;4.87;;;2.20;;
5428;SDS011;2737;52.386;9.980;2023-02-28T15:39:24;4.80;;;2.10;;
5428;SDS011;2737;52.386;9.980;2023-02-28T15:44:38;5.70;;;2.27;;
5428;SDS011;2737;52.386;9.980;2023-02-28T15:47:06;4.10;;;2.17;;
5428;SDS011;2737;52.386;9.980;2023-02-28T15:49:45;5.13;;;2.37;;
5428;SDS011;2737;52.386;9.980;2023-02-28T15:52:15;3.87;;;2.00;;
5428;SDS011;2737;52.386;9.980;2023-02-28T15:54:45;2.97;;;2.03;;
5428;SDS011;2737;52.386;9.980;2023-02-28T15:57:14;4.37;;;2.13;;
5428;SDS011;2737;52.386;9.980;2023-02-28T15:59:50;4.73;;;2.07;;
5428;SDS011;2737;52.386;9.980;2023-02-28T16:02:20;2.90;;;2.40;;
5428;SDS011;2737;52.386;9.980;2023-02-28T16:04:59;4.80;;;2.40;;
5428;SDS011;2737;52.386;9.980;2023-02-28T16:07:29;8.37;;;2.90;;
5428;SDS011;2737;52.386;9.980;2023-02-28T16:09:56;4.57;;;2.40;;
5428;SDS011;2737;52.386;9.980;2023-02-28T16:12:25;6.93;;;3.00;;
5428;SDS011;2737;52.386;9.980;2023-02-28T16:14:55;5.37;;;2.20;;